• Join FlightAware (Why Join?)
  • Login
  • US Flag 
09:10AM EDT


 

Airport Tracker/Info


-or-


 

Live Flight TrackerFlight Track Log ✈ SWA718 ✈ 19-Apr-2013 ✈ KMDW - KOMA

Flight Track Log - Related Links

Times and Time Zones

All times are in EDT time to prevent confusion due to time zone crossing. See the SWA718 flight status page for this flight to view local times or setup timezone preferences in your user account.

Time Position Orientation Groundspeed Altitude Reporting Facility
EDT Latitude Longitude Course Direction KTS MPH feet Rate Location/Type
11:42PM 41.7667 -87.8500 246° West 183 211 3,100  Level Chicago TRACON
11:43PM 41.7542 -87.8825 243° Southwest 180 207 2,900 480 Descending Chicago Center
11:44PM 41.7456 -87.9475 260° West 193 222 3,900 540 Climbing Chicago Center
11:45PM 41.7519 -88.0461 275° West 216 249 4,000 540 Climbing Chicago Center
11:46PM 41.7561 -88.1297 274° West 223 257 5,100 2,460 Climbing Chicago Center
11:47PM 41.7606 -88.2192 274° West 237 273 9,100 3,300 Climbing Chicago Center
11:48PM 41.7678 -88.3128 276° West 253 291 11,900 1,380 Climbing Chicago Center
11:49PM 41.7731 -88.4042 274° West 250 288 12,000 360 Climbing Chicago Center
11:50PM 41.7786 -88.5022 274° West 262 302 12,700 1,920 Climbing Chicago Center
11:51PM 41.7864 -88.6244 275° West 324 373 16,000 3,240 Climbing Chicago Center
11:52PM 41.7778 -88.7511 265° West 346 398 19,400 3,060 Climbing Chicago Center
11:53PM 41.7719 -88.8853 267° West 360 414 22,300 3,000 Climbing Chicago Center
11:54PM 41.7806 -89.0539 274° West 388 447 25,500 2,880 Climbing Chicago Center
11:55PM 41.7961 -89.1989 278° West 394 453 28,200 2,580 Climbing Chicago Center
11:56PM 41.8100 -89.3414 277° West 388 447 30,800 2,280 Climbing Chicago Center
11:57PM 41.8244 -89.4817 278° West 381 438 32,900 1,500 Climbing Chicago Center
11:58PM 41.8253 -89.6272 270° West 395 455 33,900 1,260 Climbing Chicago Center
11:59PM 41.8200 -89.7794 267° West 409 471 35,500 1,020 Climbing Chicago Center
12:00AM 41.8156 -89.9375 268° West 414 476 36,000 240 Climbing Chicago Center
12:01AM 41.8106 -90.0892 268° West 409 471 36,000  Level Chicago Center
12:02AM 41.8064 -90.2378 268° West 403 464 36,000  Level Chicago Center
12:03AM 41.7994 -90.3881 267° West 406 467 36,000  Level Chicago Center
12:04AM 41.7908 -90.5703 266° West 424 488 36,000  Level Chicago Center
12:05AM 41.7861 -90.6997 267° West 415 478 36,000  Level Chicago Center
12:06AM 41.7794 -90.8522 267° West 411 473 36,000  Level Chicago Center
12:07AM 41.7728 -91.0061 267° West 414 476 36,000  Level Chicago Center
12:08AM 41.7647 -91.1875 267° West 409 471 36,000  Level Chicago Center
12:09AM 41.7572 -91.3397 266° West 409 471 36,000  Level Chicago Center
12:10AM 41.7500 -91.4917 266° West 411 473 36,000  Level Chicago Center
12:11AM 41.7419 -91.6411 266° West 407 468 36,000  Level Chicago Center
12:12AM 41.7347 -91.7939 266° West 413 475 36,000  Level Chicago Center
12:13AM 41.7264 -91.9494 266° West 419 482 36,000  Level Chicago Center
12:14AM 41.7111 -92.1011 262° West 416 479 36,000  Level Chicago Center
12:15AM 41.6903 -92.2539 260° West 419 482 36,000  Level Chicago Center
12:16AM 41.6700 -92.4050 260° West 416 479 36,000  Level Chicago Center
12:17AM 41.6500 -92.5542 260° West 412 474 36,000  Level Chicago Center
12:18AM 41.6292 -92.7033 259° West 411 473 36,000  Level Chicago Center
12:19AM 41.6217 -92.7511 258° West 410 472 36,000  Level Minneapolis Center
12:20AM 41.6014 -92.8986 260° West 409 471 36,000  Level Minneapolis Center
12:21AM 41.5772 -93.0756 260° West 407 468 36,000  Level Minneapolis Center
12:22AM 41.5561 -93.2236 259° West 409 471 36,000  Level Minneapolis Center
12:23AM 41.5342 -93.3714 259° West 410 472 36,000  Level Minneapolis Center
12:24AM 41.5125 -93.5194 259° West 411 473 36,000  Level Minneapolis Center
12:25AM 41.4919 -93.6675 260° West 410 472 36,000 -120 Level Minneapolis Center
12:26AM 41.4692 -93.8178 259° West 415 478 35,800 -1,320 Descending Minneapolis Center
12:27AM 41.4478 -93.9642 259° West 411 473 33,400 -2,520 Descending Minneapolis Center
12:28AM 41.4264 -94.1056 259° West 401 461 30,800 -2,520 Descending Minneapolis Center
12:29AM 41.4044 -94.2475 258° West 382 440 28,400 -2,520 Descending Minneapolis Center
12:30AM 41.3839 -94.3789 258° West 368 423 25,700 -2,580 Descending Minneapolis Center
12:31AM 41.3653 -94.5058 259° West 356 410 23,300 -2,400 Descending Minneapolis Center
12:32AM 41.3456 -94.6292 258° West 345 397 20,900 -2,520 Descending Minneapolis Center
12:33AM 41.3394 -94.7756 267° West 329 379 18,200 -2,340 Descending Minneapolis Center
12:34AM 41.3228 -94.8611 255° West 317 365 16,700 -2,040 Descending Minneapolis Center
12:35AM 41.3039 -94.9719 257° West 306 352 14,500 -2,160 Descending Minneapolis Center
12:36AM 41.2847 -95.0828 257° West 304 350 12,400 -2,040 Descending Minneapolis Center
12:37AM 41.2719 -95.1953 261° West 290 334 10,500 -1,440 Descending Minneapolis Center
12:38AM 41.2686 -95.2928 267° West 257 296 9,500 -1,440 Descending Minneapolis Center
12:39AM 41.2664 -95.3819 268° West 239 275 7,600 -1,620 Descending Minneapolis Center
12:40AM 41.2642 -95.4683 268° West 235 270 6,300 -1,380 Descending Minneapolis Center
12:41AM 41.2622 -95.5600 268° West 229 264 4,700 -1,380 Descending Minneapolis Center
12:42AM 41.2581 -95.6519 267° West 236 272 3,500 -900 Descending Minneapolis Center
12:43AM 41.2569 -95.7297 269° West 207 238 2,900 -480 Descending Minneapolis Center
12:44AM 41.2547 -95.7883 267° West 147 169 2,600 -420 Descending Minneapolis Center
12:45AM 41.2558 -95.8381 272° West 119 137 2,100 -600 Descending Minneapolis Center
12:46AM 41.2747 -95.8719 307° West 114 131 1,400 -540 Descending Minneapolis Center
12:47AM 41.3022 -95.8958 327° Northwest 130 150 1,000 -420 Descending Minneapolis Center